EKCH/CPH METAR and TAF weather

Enter ICAO airport designator
Station Type Date Time Source
EKCH METAR 2018/09/20 17:50 UTC NOAA

EKCH 201750Z 20006KT CAVOK 18/15 Q1011 NOSIG


Station Type Date Time Source
EKCH Decoded METAR 2018/09/20 17:50 UTC NOAA

Koebenhavn / Kastrup, Denmark (EKCH) 55-37N 012-39E 5M
Sep 20, 2018 - 01:50 PM EDT / 2018.09.20 1750 UTC
Wind: from the SSW (200 degrees) at 7 MPH (6 KT):0
Visibility: greater than 7 mile(s):0
Temperature: 64 F (18 C)
Dew Point: 59 F (15 C)
Relative Humidity: 82%
Pressure (altimeter): 29.85 in. Hg (1011 hPa)
ob: EKCH 201750Z 20006KT CAVOK 18/15 Q1011 NOSIG
cycle: 18

Station Type Date Time Source
EKCH TAF 2018/09/20 18:18 UTC NOAA

TAF EKCH 201708Z 2018/2118 21012KT 9999 SCT020
BECMG 2103/2106 16022KT
TEMPO 2108/2112 16022G35KT
BECMG 2112/2114 22022G42KT 4000 RA BKN030CB
BECMG 2114/2116 9999 NSW SCT040


Example: see airport list